sensor_id;sensor_type;location;lat;lon;timestamp;P1;durP1;ratioP1;P2;durP2;ratioP2
45114;SDS011;30877;43.706;10.780;2022-12-15T00:00:34;8.38;;;6.15;;
45114;SDS011;30877;43.706;10.780;2022-12-15T00:03:22;7.00;;;5.57;;
45114;SDS011;30877;43.706;10.780;2022-12-15T00:06:09;8.05;;;5.63;;
45114;SDS011;30877;43.706;10.780;2022-12-15T00:09:10;7.68;;;5.68;;
45114;SDS011;30877;43.706;10.780;2022-12-15T00:11:57;7.03;;;5.47;;
45114;SDS011;30877;43.706;10.780;2022-12-15T00:14:44;5.95;;;4.68;;
45114;SDS011;30877;43.706;10.780;2022-12-15T00:17:31;7.72;;;5.78;;
45114;SDS011;30877;43.706;10.780;2022-12-15T00:23:06;9.75;;;5.95;;
45114;SDS011;30877;43.706;10.780;2022-12-15T00:25:54;7.18;;;5.38;;
45114;SDS011;30877;43.706;10.780;2022-12-15T00:28:41;8.55;;;5.55;;
45114;SDS011;30877;43.706;10.780;2022-12-15T00:31:28;6.72;;;5.90;;
45114;SDS011;30877;43.706;10.780;2022-12-15T00:34:14;7.05;;;5.35;;
45114;SDS011;30877;43.706;10.780;2022-12-15T00:37:03;6.22;;;4.75;;
45114;SDS011;30877;43.706;10.780;2022-12-15T00:39:49;6.53;;;4.95;;
45114;SDS011;30877;43.706;10.780;2022-12-15T00:42:25;7.68;;;4.70;;
45114;SDS011;30877;43.706;10.780;2022-12-15T00:44:54;5.47;;;4.70;;
45114;SDS011;30877;43.706;10.780;2022-12-15T00:47:23;9.32;;;5.15;;
45114;SDS011;30877;43.706;10.780;2022-12-15T00:49:51;7.05;;;4.43;;
45114;SDS011;30877;43.706;10.780;2022-12-15T00:52:39;5.72;;;4.50;;
45114;SDS011;30877;43.706;10.780;2022-12-15T00:55:26;5.70;;;4.60;;
45114;SDS011;30877;43.706;10.780;2022-12-15T00:58:13;6.30;;;4.80;;
45114;SDS011;30877;43.706;10.780;2022-12-15T01:01:04;4.80;;;4.00;;
45114;SDS011;30877;43.706;10.780;2022-12-15T01:03:59;5.57;;;4.03;;
45114;SDS011;30877;43.706;10.780;2022-12-15T01:09:34;7.85;;;4.88;;
45114;SDS011;30877;43.706;10.780;2022-12-15T01:12:21;8.02;;;4.90;;
45114;SDS011;30877;43.706;10.780;2022-12-15T01:17:55;6.60;;;4.13;;
45114;SDS011;30877;43.706;10.780;2022-12-15T01:20:42;6.18;;;4.65;;
45114;SDS011;30877;43.706;10.780;2022-12-15T01:23:10;8.23;;;4.75;;
45114;SDS011;30877;43.706;10.780;2022-12-15T01:25:40;6.30;;;5.35;;
45114;SDS011;30877;43.706;10.780;2022-12-15T01:28:08;6.65;;;4.72;;
45114;SDS011;30877;43.706;10.780;2022-12-15T01:30:36;5.93;;;4.60;;
45114;SDS011;30877;43.706;10.780;2022-12-15T01:33:05;7.57;;;4.95;;
45114;SDS011;30877;43.706;10.780;2022-12-15T01:35:33;6.10;;;4.95;;
45114;SDS011;30877;43.706;10.780;2022-12-15T01:38:01;6.85;;;4.88;;
45114;SDS011;30877;43.706;10.780;2022-12-15T01:40:29;6.53;;;4.82;;
45114;SDS011;30877;43.706;10.780;2022-12-15T01:43:14;6.35;;;5.00;;
45114;SDS011;30877;43.706;10.780;2022-12-15T01:45:51;6.60;;;5.05;;
45114;SDS011;30877;43.706;10.780;2022-12-15T01:48:26;6.47;;;5.40;;
45114;SDS011;30877;43.706;10.780;2022-12-15T01:51:04;6.40;;;5.10;;
45114;SDS011;30877;43.706;10.780;2022-12-15T01:53:37;5.68;;;5.03;;
45114;SDS011;30877;43.706;10.780;2022-12-15T01:56:08;6.00;;;5.38;;
45114;SDS011;30877;43.706;10.780;2022-12-15T01:58:39;6.45;;;5.05;;
45114;SDS011;30877;43.706;10.780;2022-12-15T02:01:11;9.25;;;5.50;;
45114;SDS011;30877;43.706;10.780;2022-12-15T02:03:39;6.47;;;5.53;;
45114;SDS011;30877;43.706;10.780;2022-12-15T02:06:08;6.22;;;5.20;;
45114;SDS011;30877;43.706;10.780;2022-12-15T02:08:37;6.85;;;5.53;;
45114;SDS011;30877;43.706;10.780;2022-12-15T02:11:14;7.75;;;6.00;;
45114;SDS011;30877;43.706;10.780;2022-12-15T02:14:00;7.38;;;5.70;;
45114;SDS011;30877;43.706;10.780;2022-12-15T02:16:32;7.47;;;6.00;;
45114;SDS011;30877;43.706;10.780;2022-12-15T02:19:14;7.03;;;5.80;;
45114;SDS011;30877;43.706;10.780;2022-12-15T02:21:55;7.60;;;5.60;;
45114;SDS011;30877;43.706;10.780;2022-12-15T02:24:43;7.13;;;6.20;;
45114;SDS011;30877;43.706;10.780;2022-12-15T02:27:42;7.03;;;5.68;;
45114;SDS011;30877;43.706;10.780;2022-12-15T02:32:57;6.95;;;5.90;;
45114;SDS011;30877;43.706;10.780;2022-12-15T02:35:40;6.78;;;5.95;;
45114;SDS011;30877;43.706;10.780;2022-12-15T02:38:26;6.85;;;5.95;;
45114;SDS011;30877;43.706;10.780;2022-12-15T02:40:57;7.22;;;5.63;;
45114;SDS011;30877;43.706;10.780;2022-12-15T02:43:25;7.88;;;6.15;;
45114;SDS011;30877;43.706;10.780;2022-12-15T02:45:59;7.55;;;6.70;;
45114;SDS011;30877;43.706;10.780;2022-12-15T02:48:41;7.03;;;6.03;;
45114;SDS011;30877;43.706;10.780;2022-12-15T02:51:21;7.20;;;6.50;;
45114;SDS011;30877;43.706;10.780;2022-12-15T02:54:12;7.25;;;6.55;;
45114;SDS011;30877;43.706;10.780;2022-12-15T02:56:54;8.65;;;6.28;;
45114;SDS011;30877;43.706;10.780;2022-12-15T02:59:35;7.85;;;6.95;;
45114;SDS011;30877;43.706;10.780;2022-12-15T03:02:08;7.70;;;6.05;;
45114;SDS011;30877;43.706;10.780;2022-12-15T03:04:38;8.68;;;6.00;;
45114;SDS011;30877;43.706;10.780;2022-12-15T03:07:09;7.80;;;5.75;;
45114;SDS011;30877;43.706;10.780;2022-12-15T03:09:37;6.50;;;5.85;;
45114;SDS011;30877;43.706;10.780;2022-12-15T03:12:05;7.30;;;6.10;;
45114;SDS011;30877;43.706;10.780;2022-12-15T03:14:34;7.47;;;6.78;;
45114;SDS011;30877;43.706;10.780;2022-12-15T03:17:02;7.20;;;6.50;;
45114;SDS011;30877;43.706;10.780;2022-12-15T03:19:35;7.93;;;6.28;;
45114;SDS011;30877;43.706;10.780;2022-12-15T03:22:05;7.93;;;6.53;;
45114;SDS011;30877;43.706;10.780;2022-12-15T03:24:35;7.43;;;6.72;;
45114;SDS011;30877;43.706;10.780;2022-12-15T03:27:04;7.97;;;6.53;;
45114;SDS011;30877;43.706;10.780;2022-12-15T03:29:33;6.72;;;5.85;;
45114;SDS011;30877;43.706;10.780;2022-12-15T03:32:01;8.43;;;6.53;;
45114;SDS011;30877;43.706;10.780;2022-12-15T03:34:29;8.13;;;6.53;;
45114;SDS011;30877;43.706;10.780;2022-12-15T03:36:59;7.68;;;6.97;;
45114;SDS011;30877;43.706;10.780;2022-12-15T03:39:27;7.50;;;6.80;;
45114;SDS011;30877;43.706;10.780;2022-12-15T03:41:55;7.00;;;6.30;;
45114;SDS011;30877;43.706;10.780;2022-12-15T03:44:24;9.30;;;7.25;;
45114;SDS011;30877;43.706;10.780;2022-12-15T03:46:52;7.90;;;7.10;;
45114;SDS011;30877;43.706;10.780;2022-12-15T03:49:28;8.77;;;7.32;;
45114;SDS011;30877;43.706;10.780;2022-12-15T03:51:56;8.13;;;7.32;;
45114;SDS011;30877;43.706;10.780;2022-12-15T03:54:25;9.20;;;8.20;;
45114;SDS011;30877;43.706;10.780;2022-12-15T03:56:53;9.40;;;8.15;;
45114;SDS011;30877;43.706;10.780;2022-12-15T03:59:21;9.27;;;8.35;;
45114;SDS011;30877;43.706;10.780;2022-12-15T04:01:49;10.35;;;9.05;;
45114;SDS011;30877;43.706;10.780;2022-12-15T04:04:17;9.93;;;8.43;;
45114;SDS011;30877;43.706;10.780;2022-12-15T04:06:45;10.05;;;8.90;;
45114;SDS011;30877;43.706;10.780;2022-12-15T04:09:15;9.88;;;8.85;;
45114;SDS011;30877;43.706;10.780;2022-12-15T04:11:43;11.50;;;9.50;;
45114;SDS011;30877;43.706;10.780;2022-12-15T04:14:10;12.40;;;10.07;;
45114;SDS011;30877;43.706;10.780;2022-12-15T04:16:38;12.13;;;9.77;;
45114;SDS011;30877;43.706;10.780;2022-12-15T04:19:06;10.60;;;9.18;;
45114;SDS011;30877;43.706;10.780;2022-12-15T04:21:53;11.40;;;10.07;;
45114;SDS011;30877;43.706;10.780;2022-12-15T04:24:22;10.77;;;9.27;;
45114;SDS011;30877;43.706;10.780;2022-12-15T04:27:08;12.50;;;10.25;;
45114;SDS011;30877;43.706;10.780;2022-12-15T04:29:55;11.27;;;9.20;;
45114;SDS011;30877;43.706;10.780;2022-12-15T04:32:41;10.15;;;8.80;;
45114;SDS011;30877;43.706;10.780;2022-12-15T04:35:27;10.30;;;8.23;;
45114;SDS011;30877;43.706;10.780;2022-12-15T04:38:15;9.13;;;8.10;;
45114;SDS011;30877;43.706;10.780;2022-12-15T04:41:04;10.50;;;8.35;;
45114;SDS011;30877;43.706;10.780;2022-12-15T04:43:51;10.15;;;8.15;;
45114;SDS011;30877;43.706;10.780;2022-12-15T04:46:37;9.73;;;8.03;;
45114;SDS011;30877;43.706;10.780;2022-12-15T04:49:23;10.85;;;8.57;;
45114;SDS011;30877;43.706;10.780;2022-12-15T04:52:10;9.83;;;8.53;;
45114;SDS011;30877;43.706;10.780;2022-12-15T04:54:56;9.43;;;8.00;;
45114;SDS011;30877;43.706;10.780;2022-12-15T04:57:44;10.45;;;8.30;;
45114;SDS011;30877;43.706;10.780;2022-12-15T05:00:30;9.13;;;7.85;;
45114;SDS011;30877;43.706;10.780;2022-12-15T05:03:17;9.57;;;8.48;;
45114;SDS011;30877;43.706;10.780;2022-12-15T05:06:03;10.13;;;8.85;;
45114;SDS011;30877;43.706;10.780;2022-12-15T05:08:50;10.05;;;8.80;;
45114;SDS011;30877;43.706;10.780;2022-12-15T05:11:36;10.27;;;8.55;;
45114;SDS011;30877;43.706;10.780;2022-12-15T05:14:24;9.87;;;8.53;;
45114;SDS011;30877;43.706;10.780;2022-12-15T05:17:15;9.70;;;8.70;;
45114;SDS011;30877;43.706;10.780;2022-12-15T05:20:07;9.32;;;8.35;;
45114;SDS011;30877;43.706;10.780;2022-12-15T05:25:41;11.10;;;8.73;;
45114;SDS011;30877;43.706;10.780;2022-12-15T05:28:27;11.38;;;8.48;;
45114;SDS011;30877;43.706;10.780;2022-12-15T05:34:17;12.63;;;9.25;;
45114;SDS011;30877;43.706;10.780;2022-12-15T05:36:46;9.77;;;8.25;;
45114;SDS011;30877;43.706;10.780;2022-12-15T05:39:14;9.75;;;8.30;;
45114;SDS011;30877;43.706;10.780;2022-12-15T05:41:43;9.77;;;8.77;;
45114;SDS011;30877;43.706;10.780;2022-12-15T05:44:11;10.05;;;8.38;;
45114;SDS011;30877;43.706;10.780;2022-12-15T05:46:41;10.52;;;8.18;;
45114;SDS011;30877;43.706;10.780;2022-12-15T05:49:10;10.23;;;8.90;;
45114;SDS011;30877;43.706;10.780;2022-12-15T05:51:41;10.40;;;9.02;;
45114;SDS011;30877;43.706;10.780;2022-12-15T05:54:11;10.95;;;8.77;;
45114;SDS011;30877;43.706;10.780;2022-12-15T05:56:41;11.75;;;9.02;;
45114;SDS011;30877;43.706;10.780;2022-12-15T05:59:09;11.57;;;9.30;;
45114;SDS011;30877;43.706;10.780;2022-12-15T06:01:37;11.35;;;9.75;;
45114;SDS011;30877;43.706;10.780;2022-12-15T06:04:07;10.77;;;8.93;;
45114;SDS011;30877;43.706;10.780;2022-12-15T06:06:37;10.02;;;8.57;;
45114;SDS011;30877;43.706;10.780;2022-12-15T06:09:06;10.80;;;8.82;;
45114;SDS011;30877;43.706;10.780;2022-12-15T06:11:34;10.13;;;8.68;;
45114;SDS011;30877;43.706;10.780;2022-12-15T06:14:03;10.27;;;8.23;;
45114;SDS011;30877;43.706;10.780;2022-12-15T06:16:31;10.05;;;8.60;;
45114;SDS011;30877;43.706;10.780;2022-12-15T06:19:00;9.85;;;8.35;;
45114;SDS011;30877;43.706;10.780;2022-12-15T06:21:30;9.88;;;8.35;;
45114;SDS011;30877;43.706;10.780;2022-12-15T06:24:04;10.90;;;9.02;;
45114;SDS011;30877;43.706;10.780;2022-12-15T06:26:34;9.88;;;8.02;;
45114;SDS011;30877;43.706;10.780;2022-12-15T06:29:04;10.77;;;9.27;;
45114;SDS011;30877;43.706;10.780;2022-12-15T06:31:34;10.63;;;8.93;;
45114;SDS011;30877;43.706;10.780;2022-12-15T06:34:04;10.55;;;9.20;;
45114;SDS011;30877;43.706;10.780;2022-12-15T06:36:36;10.00;;;8.15;;
45114;SDS011;30877;43.706;10.780;2022-12-15T06:39:05;9.77;;;8.43;;
45114;SDS011;30877;43.706;10.780;2022-12-15T06:41:35;9.85;;;8.32;;
45114;SDS011;30877;43.706;10.780;2022-12-15T06:44:03;8.82;;;7.90;;
45114;SDS011;30877;43.706;10.780;2022-12-15T06:46:32;9.98;;;8.27;;
45114;SDS011;30877;43.706;10.780;2022-12-15T06:49:03;9.35;;;7.97;;
45114;SDS011;30877;43.706;10.780;2022-12-15T06:51:31;9.95;;;8.45;;
45114;SDS011;30877;43.706;10.780;2022-12-15T06:54:00;9.35;;;7.95;;
45114;SDS011;30877;43.706;10.780;2022-12-15T06:56:29;9.25;;;7.82;;
45114;SDS011;30877;43.706;10.780;2022-12-15T06:59:00;9.85;;;7.72;;
45114;SDS011;30877;43.706;10.780;2022-12-15T07:01:29;9.48;;;7.65;;
45114;SDS011;30877;43.706;10.780;2022-12-15T07:03:58;8.13;;;7.25;;
45114;SDS011;30877;43.706;10.780;2022-12-15T07:06:30;9.93;;;7.75;;
45114;SDS011;30877;43.706;10.780;2022-12-15T07:09:04;10.95;;;8.15;;
45114;SDS011;30877;43.706;10.780;2022-12-15T07:11:34;8.80;;;6.88;;
45114;SDS011;30877;43.706;10.780;2022-12-15T07:14:02;8.07;;;6.85;;
45114;SDS011;30877;43.706;10.780;2022-12-15T07:16:30;7.45;;;6.65;;
45114;SDS011;30877;43.706;10.780;2022-12-15T07:18:59;8.45;;;7.30;;
45114;SDS011;30877;43.706;10.780;2022-12-15T07:21:27;9.15;;;6.82;;
45114;SDS011;30877;43.706;10.780;2022-12-15T07:23:55;7.20;;;6.50;;
45114;SDS011;30877;43.706;10.780;2022-12-15T07:26:26;7.68;;;6.88;;
45114;SDS011;30877;43.706;10.780;2022-12-15T07:28:54;7.53;;;6.53;;
45114;SDS011;30877;43.706;10.780;2022-12-15T07:31:22;7.88;;;6.43;;
45114;SDS011;30877;43.706;10.780;2022-12-15T07:33:50;6.95;;;5.97;;
45114;SDS011;30877;43.706;10.780;2022-12-15T07:36:20;7.47;;;6.10;;
45114;SDS011;30877;43.706;10.780;2022-12-15T07:38:49;8.48;;;6.85;;
45114;SDS011;30877;43.706;10.780;2022-12-15T07:41:18;10.25;;;6.97;;
45114;SDS011;30877;43.706;10.780;2022-12-15T07:43:47;10.57;;;6.45;;
45114;SDS011;30877;43.706;10.780;2022-12-15T07:46:16;7.53;;;5.85;;
45114;SDS011;30877;43.706;10.780;2022-12-15T07:48:44;7.43;;;6.13;;
45114;SDS011;30877;43.706;10.780;2022-12-15T07:51:17;7.10;;;5.50;;
45114;SDS011;30877;43.706;10.780;2022-12-15T07:53:46;7.30;;;5.63;;
45114;SDS011;30877;43.706;10.780;2022-12-15T07:56:16;7.38;;;5.68;;
45114;SDS011;30877;43.706;10.780;2022-12-15T07:58:45;6.22;;;5.60;;
45114;SDS011;30877;43.706;10.780;2022-12-15T08:01:15;7.30;;;5.22;;
45114;SDS011;30877;43.706;10.780;2022-12-15T08:03:43;8.68;;;6.55;;
45114;SDS011;30877;43.706;10.780;2022-12-15T08:06:12;6.60;;;5.70;;
45114;SDS011;30877;43.706;10.780;2022-12-15T08:08:42;9.20;;;6.43;;
45114;SDS011;30877;43.706;10.780;2022-12-15T08:11:17;9.52;;;6.95;;
45114;SDS011;30877;43.706;10.780;2022-12-15T08:13:48;8.02;;;6.90;;
45114;SDS011;30877;43.706;10.780;2022-12-15T08:16:36;7.05;;;6.00;;
45114;SDS011;30877;43.706;10.780;2022-12-15T08:19:05;7.22;;;6.35;;
45114;SDS011;30877;43.706;10.780;2022-12-15T08:21:34;7.18;;;6.38;;
45114;SDS011;30877;43.706;10.780;2022-12-15T08:24:05;7.57;;;6.20;;
45114;SDS011;30877;43.706;10.780;2022-12-15T08:26:34;10.32;;;7.32;;
45114;SDS011;30877;43.706;10.780;2022-12-15T08:29:05;8.23;;;6.85;;
45114;SDS011;30877;43.706;10.780;2022-12-15T08:31:59;8.73;;;6.90;;
45114;SDS011;30877;43.706;10.780;2022-12-15T08:34:27;7.70;;;6.90;;
45114;SDS011;30877;43.706;10.780;2022-12-15T08:36:56;8.45;;;7.05;;
45114;SDS011;30877;43.706;10.780;2022-12-15T08:39:24;9.85;;;7.82;;
45114;SDS011;30877;43.706;10.780;2022-12-15T08:41:52;9.38;;;7.75;;
45114;SDS011;30877;43.706;10.780;2022-12-15T08:44:21;10.55;;;8.60;;
45114;SDS011;30877;43.706;10.780;2022-12-15T08:46:49;10.32;;;7.93;;
45114;SDS011;30877;43.706;10.780;2022-12-15T08:49:17;9.45;;;7.68;;
45114;SDS011;30877;43.706;10.780;2022-12-15T08:51:48;8.25;;;7.15;;
45114;SDS011;30877;43.706;10.780;2022-12-15T08:54:17;8.30;;;7.35;;
45114;SDS011;30877;43.706;10.780;2022-12-15T08:56:46;7.80;;;7.00;;
45114;SDS011;30877;43.706;10.780;2022-12-15T08:59:14;6.80;;;6.10;;
45114;SDS011;30877;43.706;10.780;2022-12-15T09:01:44;7.88;;;6.65;;
45114;SDS011;30877;43.706;10.780;2022-12-15T09:04:13;7.97;;;6.82;;
45114;SDS011;30877;43.706;10.780;2022-12-15T09:06:41;7.72;;;6.63;;
45114;SDS011;30877;43.706;10.780;2022-12-15T09:09:14;6.05;;;5.45;;
45114;SDS011;30877;43.706;10.780;2022-12-15T09:11:42;6.40;;;5.55;;
45114;SDS011;30877;43.706;10.780;2022-12-15T09:14:10;6.80;;;5.25;;
45114;SDS011;30877;43.706;10.780;2022-12-15T09:16:37;6.30;;;5.70;;
45114;SDS011;30877;43.706;10.780;2022-12-15T09:19:07;6.43;;;5.43;;
45114;SDS011;30877;43.706;10.780;2022-12-15T09:21:36;5.55;;;4.95;;
45114;SDS011;30877;43.706;10.780;2022-12-15T09:24:05;6.50;;;5.10;;
45114;SDS011;30877;43.706;10.780;2022-12-15T09:26:33;4.93;;;4.43;;
45114;SDS011;30877;43.706;10.780;2022-12-15T09:29:01;6.53;;;5.03;;
45114;SDS011;30877;43.706;10.780;2022-12-15T09:31:30;5.85;;;4.65;;
45114;SDS011;30877;43.706;10.780;2022-12-15T09:33:59;6.18;;;4.78;;
45114;SDS011;30877;43.706;10.780;2022-12-15T09:36:29;5.28;;;4.78;;
45114;SDS011;30877;43.706;10.780;2022-12-15T09:38:58;4.75;;;4.28;;
45114;SDS011;30877;43.706;10.780;2022-12-15T09:41:28;5.18;;;4.65;;
45114;SDS011;30877;43.706;10.780;2022-12-15T09:43:59;4.70;;;4.18;;
45114;SDS011;30877;43.706;10.780;2022-12-15T09:46:34;5.50;;;4.25;;
45114;SDS011;30877;43.706;10.780;2022-12-15T09:49:18;5.53;;;4.53;;
45114;SDS011;30877;43.706;10.780;2022-12-15T09:51:57;7.25;;;4.82;;
45114;SDS011;30877;43.706;10.780;2022-12-15T09:54:36;4.88;;;4.38;;
45114;SDS011;30877;43.706;10.780;2022-12-15T09:57:10;4.65;;;4.07;;
45114;SDS011;30877;43.706;10.780;2022-12-15T09:59:45;4.78;;;4.05;;
45114;SDS011;30877;43.706;10.780;2022-12-15T10:02:36;5.40;;;4.32;;
45114;SDS011;30877;43.706;10.780;2022-12-15T10:05:26;5.20;;;4.70;;
45114;SDS011;30877;43.706;10.780;2022-12-15T10:08:26;4.90;;;4.40;;
45114;SDS011;30877;43.706;10.780;2022-12-15T10:10:57;4.57;;;3.55;;
45114;SDS011;30877;43.706;10.780;2022-12-15T10:13:29;6.63;;;4.30;;
45114;SDS011;30877;43.706;10.780;2022-12-15T10:16:12;5.72;;;4.78;;
45114;SDS011;30877;43.706;10.780;2022-12-15T10:18:49;4.40;;;3.97;;
45114;SDS011;30877;43.706;10.780;2022-12-15T10:21:28;5.15;;;4.65;;
45114;SDS011;30877;43.706;10.780;2022-12-15T10:24:00;5.05;;;4.05;;
45114;SDS011;30877;43.706;10.780;2022-12-15T10:26:39;4.75;;;4.25;;
45114;SDS011;30877;43.706;10.780;2022-12-15T10:29:12;4.70;;;4.30;;
45114;SDS011;30877;43.706;10.780;2022-12-15T10:31:52;4.45;;;4.00;;
45114;SDS011;30877;43.706;10.780;2022-12-15T10:34:25;4.88;;;4.07;;
45114;SDS011;30877;43.706;10.780;2022-12-15T10:36:54;4.35;;;3.80;;
45114;SDS011;30877;43.706;10.780;2022-12-15T10:39:35;4.40;;;3.88;;
45114;SDS011;30877;43.706;10.780;2022-12-15T10:42:08;4.82;;;3.83;;
45114;SDS011;30877;43.706;10.780;2022-12-15T10:44:42;4.28;;;3.80;;
45114;SDS011;30877;43.706;10.780;2022-12-15T10:47:17;4.10;;;3.70;;
45114;SDS011;30877;43.706;10.780;2022-12-15T10:49:47;4.38;;;3.50;;
45114;SDS011;30877;43.706;10.780;2022-12-15T10:52:26;5.18;;;3.70;;
45114;SDS011;30877;43.706;10.780;2022-12-15T10:55:12;4.88;;;3.83;;
45114;SDS011;30877;43.706;10.780;2022-12-15T10:57:58;3.95;;;3.53;;
45114;SDS011;30877;43.706;10.780;2022-12-15T11:00:28;3.83;;;3.47;;
45114;SDS011;30877;43.706;10.780;2022-12-15T11:02:58;4.63;;;4.03;;
45114;SDS011;30877;43.706;10.780;2022-12-15T11:05:26;4.25;;;3.80;;
45114;SDS011;30877;43.706;10.780;2022-12-15T11:07:55;4.10;;;3.70;;
45114;SDS011;30877;43.706;10.780;2022-12-15T11:10:49;7.70;;;4.22;;
45114;SDS011;30877;43.706;10.780;2022-12-15T11:13:38;5.13;;;4.63;;
45114;SDS011;30877;43.706;10.780;2022-12-15T11:16:13;6.63;;;4.50;;
45114;SDS011;30877;43.706;10.780;2022-12-15T11:18:44;5.55;;;4.07;;
45114;SDS011;30877;43.706;10.780;2022-12-15T11:21:20;5.35;;;4.43;;
45114;SDS011;30877;43.706;10.780;2022-12-15T11:23:55;5.43;;;4.47;;
45114;SDS011;30877;43.706;10.780;2022-12-15T11:26:34;5.68;;;4.13;;
45114;SDS011;30877;43.706;10.780;2022-12-15T11:29:14;5.53;;;4.90;;
45114;SDS011;30877;43.706;10.780;2022-12-15T11:31:49;5.20;;;4.70;;
45114;SDS011;30877;43.706;10.780;2022-12-15T11:34:19;6.50;;;4.38;;
45114;SDS011;30877;43.706;10.780;2022-12-15T11:36:53;4.68;;;4.15;;
45114;SDS011;30877;43.706;10.780;2022-12-15T11:39:45;4.88;;;4.38;;
45114;SDS011;30877;43.706;10.780;2022-12-15T11:42:27;6.28;;;5.13;;
45114;SDS011;30877;43.706;10.780;2022-12-15T11:45:07;6.43;;;4.20;;
45114;SDS011;30877;43.706;10.780;2022-12-15T11:47:45;4.88;;;4.10;;
45114;SDS011;30877;43.706;10.780;2022-12-15T11:50:23;5.30;;;4.80;;
45114;SDS011;30877;43.706;10.780;2022-12-15T11:53:11;16.58;;;14.82;;
45114;SDS011;30877;43.706;10.780;2022-12-15T11:55:50;12.05;;;9.27;;
45114;SDS011;30877;43.706;10.780;2022-12-15T11:58:37;9.32;;;8.32;;
45114;SDS011;30877;43.706;10.780;2022-12-15T12:01:17;7.72;;;6.85;;
45114;SDS011;30877;43.706;10.780;2022-12-15T12:03:59;8.25;;;6.75;;
45114;SDS011;30877;43.706;10.780;2022-12-15T12:06:38;8.68;;;6.93;;
45114;SDS011;30877;43.706;10.780;2022-12-15T12:09:17;9.73;;;6.38;;
45114;SDS011;30877;43.706;10.780;2022-12-15T12:12:03;9.20;;;7.03;;
45114;SDS011;30877;43.706;10.780;2022-12-15T12:14:44;6.00;;;5.15;;
45114;SDS011;30877;43.706;10.780;2022-12-15T12:17:27;6.32;;;4.97;;
45114;SDS011;30877;43.706;10.780;2022-12-15T12:20:10;8.07;;;5.70;;
45114;SDS011;30877;43.706;10.780;2022-12-15T12:22:43;8.38;;;6.18;;
45114;SDS011;30877;43.706;10.780;2022-12-15T12:25:21;7.82;;;6.63;;
45114;SDS011;30877;43.706;10.780;2022-12-15T12:27:52;7.60;;;5.85;;
45114;SDS011;30877;43.706;10.780;2022-12-15T12:30:24;9.10;;;6.80;;
45114;SDS011;30877;43.706;10.780;2022-12-15T12:32:57;9.40;;;6.07;;
45114;SDS011;30877;43.706;10.780;2022-12-15T12:35:31;10.55;;;6.15;;
45114;SDS011;30877;43.706;10.780;2022-12-15T12:38:04;9.43;;;7.95;;
45114;SDS011;30877;43.706;10.780;2022-12-15T12:40:40;8.98;;;7.53;;
45114;SDS011;30877;43.706;10.780;2022-12-15T12:43:25;10.88;;;8.65;;
45114;SDS011;30877;43.706;10.780;2022-12-15T12:46:03;10.07;;;7.55;;
45114;SDS011;30877;43.706;10.780;2022-12-15T12:48:45;10.00;;;7.85;;
45114;SDS011;30877;43.706;10.780;2022-12-15T12:51:22;11.35;;;7.97;;
45114;SDS011;30877;43.706;10.780;2022-12-15T12:53:53;13.57;;;9.80;;
45114;SDS011;30877;43.706;10.780;2022-12-15T12:56:30;16.77;;;11.23;;
45114;SDS011;30877;43.706;10.780;2022-12-15T12:59:02;13.48;;;10.10;;
45114;SDS011;30877;43.706;10.780;2022-12-15T13:01:36;12.15;;;9.90;;
45114;SDS011;30877;43.706;10.780;2022-12-15T13:04:05;11.82;;;8.85;;
45114;SDS011;30877;43.706;10.780;2022-12-15T13:09:40;17.08;;;12.85;;
45114;SDS011;30877;43.706;10.780;2022-12-15T13:12:32;13.48;;;10.68;;
45114;SDS011;30877;43.706;10.780;2022-12-15T13:18:14;15.77;;;11.77;;
45114;SDS011;30877;43.706;10.780;2022-12-15T13:20:54;12.32;;;10.82;;
45114;SDS011;30877;43.706;10.780;2022-12-15T13:23:39;14.82;;;10.55;;
45114;SDS011;30877;43.706;10.780;2022-12-15T13:26:12;12.63;;;10.68;;
45114;SDS011;30877;43.706;10.780;2022-12-15T13:28:44;12.63;;;10.63;;
45114;SDS011;30877;43.706;10.780;2022-12-15T13:31:29;13.25;;;10.55;;
45114;SDS011;30877;43.706;10.780;2022-12-15T13:34:12;12.98;;;10.85;;
45114;SDS011;30877;43.706;10.780;2022-12-15T13:36:59;12.75;;;10.75;;
45114;SDS011;30877;43.706;10.780;2022-12-15T13:39:34;13.07;;;11.10;;
45114;SDS011;30877;43.706;10.780;2022-12-15T13:42:33;15.25;;;11.27;;
45114;SDS011;30877;43.706;10.780;2022-12-15T13:45:27;12.43;;;9.10;;
45114;SDS011;30877;43.706;10.780;2022-12-15T13:48:04;10.15;;;7.88;;
45114;SDS011;30877;43.706;10.780;2022-12-15T13:50:50;8.40;;;7.50;;
45114;SDS011;30877;43.706;10.780;2022-12-15T13:53:24;9.15;;;7.32;;
45114;SDS011;30877;43.706;10.780;2022-12-15T13:55:59;8.68;;;6.60;;
45114;SDS011;30877;43.706;10.780;2022-12-15T13:58:36;8.85;;;7.00;;
45114;SDS011;30877;43.706;10.780;2022-12-15T14:01:16;8.20;;;6.68;;
45114;SDS011;30877;43.706;10.780;2022-12-15T14:03:57;6.70;;;6.00;;
45114;SDS011;30877;43.706;10.780;2022-12-15T14:06:45;7.85;;;6.90;;
45114;SDS011;30877;43.706;10.780;2022-12-15T14:09:19;9.23;;;7.57;;
45114;SDS011;30877;43.706;10.780;2022-12-15T14:11:50;10.48;;;7.30;;
45114;SDS011;30877;43.706;10.780;2022-12-15T14:14:21;9.20;;;7.55;;
45114;SDS011;30877;43.706;10.780;2022-12-15T14:16:52;8.23;;;7.28;;
45114;SDS011;30877;43.706;10.780;2022-12-15T14:19:24;10.23;;;7.55;;
45114;SDS011;30877;43.706;10.780;2022-12-15T14:21:54;9.52;;;7.35;;
45114;SDS011;30877;43.706;10.780;2022-12-15T14:24:25;11.50;;;7.78;;
45114;SDS011;30877;43.706;10.780;2022-12-15T14:27:19;11.27;;;9.88;;
45114;SDS011;30877;43.706;10.780;2022-12-15T14:29:49;14.27;;;11.45;;
45114;SDS011;30877;43.706;10.780;2022-12-15T14:32:34;11.75;;;9.52;;
45114;SDS011;30877;43.706;10.780;2022-12-15T14:35:02;10.68;;;7.55;;
45114;SDS011;30877;43.706;10.780;2022-12-15T14:37:32;9.77;;;7.82;;
45114;SDS011;30877;43.706;10.780;2022-12-15T14:40:01;9.82;;;8.38;;
45114;SDS011;30877;43.706;10.780;2022-12-15T14:42:29;10.30;;;8.32;;
45114;SDS011;30877;43.706;10.780;2022-12-15T14:44:57;11.48;;;8.52;;
45114;SDS011;30877;43.706;10.780;2022-12-15T14:47:26;9.75;;;8.52;;
45114;SDS011;30877;43.706;10.780;2022-12-15T14:49:57;10.23;;;9.10;;
45114;SDS011;30877;43.706;10.780;2022-12-15T14:52:28;11.80;;;9.25;;
45114;SDS011;30877;43.706;10.780;2022-12-15T14:55:03;11.05;;;8.30;;
45114;SDS011;30877;43.706;10.780;2022-12-15T14:57:54;9.10;;;7.63;;
45114;SDS011;30877;43.706;10.780;2022-12-15T15:00:26;14.52;;;11.48;;
45114;SDS011;30877;43.706;10.780;2022-12-15T15:03:15;15.38;;;11.68;;
45114;SDS011;30877;43.706;10.780;2022-12-15T15:05:52;14.77;;;10.68;;
45114;SDS011;30877;43.706;10.780;2022-12-15T15:08:28;10.77;;;8.23;;
45114;SDS011;30877;43.706;10.780;2022-12-15T15:10:59;9.50;;;7.35;;
45114;SDS011;30877;43.706;10.780;2022-12-15T15:13:32;10.45;;;7.40;;
45114;SDS011;30877;43.706;10.780;2022-12-15T15:18:40;6.90;;;5.90;;
45114;SDS011;30877;43.706;10.780;2022-12-15T15:21:16;9.18;;;6.63;;
45114;SDS011;30877;43.706;10.780;2022-12-15T15:23:58;8.90;;;7.47;;
45114;SDS011;30877;43.706;10.780;2022-12-15T15:26:28;8.32;;;6.63;;
45114;SDS011;30877;43.706;10.780;2022-12-15T15:28:57;20.40;;;15.73;;
45114;SDS011;30877;43.706;10.780;2022-12-15T15:31:26;10.35;;;8.57;;
45114;SDS011;30877;43.706;10.780;2022-12-15T15:34:06;8.32;;;5.90;;
45114;SDS011;30877;43.706;10.780;2022-12-15T15:36:36;7.60;;;6.10;;
45114;SDS011;30877;43.706;10.780;2022-12-15T15:39:11;7.35;;;4.75;;
45114;SDS011;30877;43.706;10.780;2022-12-15T15:41:41;6.10;;;4.35;;
45114;SDS011;30877;43.706;10.780;2022-12-15T15:44:10;6.13;;;5.00;;